Terminal Aerodrome Forecast
Issued by NWS Charleston, WV

Home | Current Version | Previous Version | Text Only | Print | Product List | Glossary On
Versions: 1 2 3 4 5 6 7 8 9 10 11 12 13 14 15 16 17 18 19 20 21
547
FTUS41 KRLX 132320
TAFHTS
TAF
KHTS 132320Z 1400/1424 31004KT P6SM SKC
     FM141500 08004KT P6SM BKN100
     FM142200 10005KT 4SM -SN BR OVC040
     FM142300 11006KT 1SM -SN BR SCT005 OVC030=

USA.gov is the U.S. government's official web portal to all federal, state and local government web resources and services.